sensor_id;sensor_type;location;lat;lon;timestamp;pressure;altitude;pressure_sealevel;temperature;humidity
18527;BME280;9393;42.158;24.748;2023-07-16T00:01:46;99701.31;;;28.39;58.11
18527;BME280;9393;42.158;24.748;2023-07-16T00:04:50;99699.53;;;28.23;58.54
18527;BME280;9393;42.158;24.748;2023-07-16T00:07:54;99705.41;;;28.46;58.08
18527;BME280;9393;42.158;24.748;2023-07-16T00:10:58;99701.75;;;28.57;57.57
18527;BME280;9393;42.158;24.748;2023-07-16T00:14:02;99705.31;;;28.36;58.39
18527;BME280;9393;42.158;24.748;2023-07-16T00:17:07;99706.88;;;28.32;58.15
18527;BME280;9393;42.158;24.748;2023-07-16T00:20:11;99705.13;;;28.48;57.73
18527;BME280;9393;42.158;24.748;2023-07-16T00:23:15;99707.06;;;28.52;57.88
18527;BME280;9393;42.158;24.748;2023-07-16T00:26:19;99708.09;;;28.46;57.58
18527;BME280;9393;42.158;24.748;2023-07-16T00:29:23;99710.41;;;28.38;58.13
18527;BME280;9393;42.158;24.748;2023-07-16T00:32:29;99709.19;;;28.50;57.64
18527;BME280;9393;42.158;24.748;2023-07-16T00:35:32;99710.00;;;28.24;58.74
18527;BME280;9393;42.158;24.748;2023-07-16T00:38:36;99718.41;;;28.33;58.26
18527;BME280;9393;42.158;24.748;2023-07-16T00:41:42;99712.78;;;28.07;58.94
18527;BME280;9393;42.158;24.748;2023-07-16T00:44:45;99707.41;;;28.07;59.37
18527;BME280;9393;42.158;24.748;2023-07-16T00:47:51;99707.84;;;27.99;59.64
18527;BME280;9393;42.158;24.748;2023-07-16T00:50:55;99709.75;;;28.04;59.30
18527;BME280;9393;42.158;24.748;2023-07-16T00:54:00;99711.66;;;27.82;60.09
18527;BME280;9393;42.158;24.748;2023-07-16T00:57:04;99699.94;;;28.09;59.31
18527;BME280;9393;42.158;24.748;2023-07-16T01:00:09;99701.97;;;28.02;59.33
18527;BME280;9393;42.158;24.748;2023-07-16T01:03:15;99707.19;;;28.36;58.52
18527;BME280;9393;42.158;24.748;2023-07-16T01:06:24;99703.47;;;28.15;59.19
18527;BME280;9393;42.158;24.748;2023-07-16T01:09:29;99705.44;;;28.25;58.79
18527;BME280;9393;42.158;24.748;2023-07-16T01:12:34;99707.91;;;27.83;60.11
18527;BME280;9393;42.158;24.748;2023-07-16T01:15:39;99708.28;;;28.13;59.03
18527;BME280;9393;42.158;24.748;2023-07-16T01:18:44;99714.16;;;27.88;59.88
18527;BME280;9393;42.158;24.748;2023-07-16T01:21:57;99712.28;;;28.10;59.05
18527;BME280;9393;42.158;24.748;2023-07-16T01:25:22;99707.91;;;28.26;58.70
18527;BME280;9393;42.158;24.748;2023-07-16T01:28:48;99715.78;;;28.38;58.04
18527;BME280;9393;42.158;24.748;2023-07-16T01:32:00;99720.50;;;28.26;58.78
18527;BME280;9393;42.158;24.748;2023-07-16T01:35:06;99721.59;;;27.86;59.56
18527;BME280;9393;42.158;24.748;2023-07-16T01:38:11;99720.66;;;27.76;59.79
18527;BME280;9393;42.158;24.748;2023-07-16T01:41:17;99711.75;;;28.14;58.83
18527;BME280;9393;42.158;24.748;2023-07-16T01:44:21;99710.91;;;28.08;58.93
18527;BME280;9393;42.158;24.748;2023-07-16T01:47:34;99720.34;;;27.72;60.23
18527;BME280;9393;42.158;24.748;2023-07-16T01:50:45;99721.63;;;27.48;61.04
18527;BME280;9393;42.158;24.748;2023-07-16T01:53:48;99720.91;;;27.36;61.25
18527;BME280;9393;42.158;24.748;2023-07-16T01:56:52;99724.31;;;27.48;60.87
18527;BME280;9393;42.158;24.748;2023-07-16T01:59:56;99714.94;;;27.67;60.26
18527;BME280;9393;42.158;24.748;2023-07-16T02:03:01;99706.50;;;27.58;60.29
18527;BME280;9393;42.158;24.748;2023-07-16T02:06:06;99713.03;;;27.84;59.95
18527;BME280;9393;42.158;24.748;2023-07-16T02:09:10;99715.38;;;27.42;61.30
18527;BME280;9393;42.158;24.748;2023-07-16T02:12:14;99716.75;;;27.83;59.72
18527;BME280;9393;42.158;24.748;2023-07-16T02:15:18;99728.84;;;27.86;59.80
18527;BME280;9393;42.158;24.748;2023-07-16T02:18:23;99720.22;;;27.62;60.19
18527;BME280;9393;42.158;24.748;2023-07-16T02:21:27;99726.41;;;27.84;59.48
18527;BME280;9393;42.158;24.748;2023-07-16T02:24:31;99719.81;;;27.92;59.17
18527;BME280;9393;42.158;24.748;2023-07-16T02:27:35;99719.13;;;27.80;59.48
18527;BME280;9393;42.158;24.748;2023-07-16T02:30:40;99722.66;;;27.64;59.96
18527;BME280;9393;42.158;24.748;2023-07-16T02:33:47;99723.59;;;27.52;60.29
18527;BME280;9393;42.158;24.748;2023-07-16T02:36:51;99729.25;;;27.56;60.41
18527;BME280;9393;42.158;24.748;2023-07-16T02:39:55;99734.03;;;27.92;59.35
18527;BME280;9393;42.158;24.748;2023-07-16T02:42:59;99735.72;;;27.98;59.03
18527;BME280;9393;42.158;24.748;2023-07-16T02:46:02;99736.84;;;28.02;59.30
18527;BME280;9393;42.158;24.748;2023-07-16T02:49:07;99737.53;;;28.15;58.74
18527;BME280;9393;42.158;24.748;2023-07-16T02:52:11;99735.34;;;28.12;59.21
18527;BME280;9393;42.158;24.748;2023-07-16T02:55:15;99736.81;;;27.81;59.77
18527;BME280;9393;42.158;24.748;2023-07-16T02:58:19;99733.53;;;27.74;60.13
18527;BME280;9393;42.158;24.748;2023-07-16T03:01:22;99733.34;;;27.80;59.74
18527;BME280;9393;42.158;24.748;2023-07-16T03:04:28;99744.13;;;27.85;59.59
18527;BME280;9393;42.158;24.748;2023-07-16T03:07:32;99730.34;;;27.98;59.36
18527;BME280;9393;42.158;24.748;2023-07-16T03:10:36;99732.41;;;27.91;59.38
18527;BME280;9393;42.158;24.748;2023-07-16T03:13:39;99735.50;;;27.83;59.97
18527;BME280;9393;42.158;24.748;2023-07-16T03:16:43;99745.06;;;27.74;60.09
18527;BME280;9393;42.158;24.748;2023-07-16T03:19:49;99739.06;;;27.67;60.47
18527;BME280;9393;42.158;24.748;2023-07-16T03:22:53;99741.63;;;27.79;60.11
18527;BME280;9393;42.158;24.748;2023-07-16T03:25:56;99744.56;;;27.77;59.92
18527;BME280;9393;42.158;24.748;2023-07-16T03:29:01;99749.03;;;27.93;59.47
18527;BME280;9393;42.158;24.748;2023-07-16T03:32:05;99750.34;;;27.69;60.20
18527;BME280;9393;42.158;24.748;2023-07-16T03:35:10;99750.47;;;27.79;59.85
18527;BME280;9393;42.158;24.748;2023-07-16T03:38:15;99754.66;;;28.35;58.42
18527;BME280;9393;42.158;24.748;2023-07-16T03:41:19;99756.56;;;28.13;58.87
18527;BME280;9393;42.158;24.748;2023-07-16T03:44:23;99755.78;;;28.18;58.62
18527;BME280;9393;42.158;24.748;2023-07-16T03:47:26;99757.75;;;27.84;59.59
18527;BME280;9393;42.158;24.748;2023-07-16T03:50:32;99759.00;;;27.98;59.34
18527;BME280;9393;42.158;24.748;2023-07-16T03:53:35;99755.25;;;28.16;58.43
18527;BME280;9393;42.158;24.748;2023-07-16T03:56:40;99760.72;;;27.82;59.27
18527;BME280;9393;42.158;24.748;2023-07-16T03:59:43;99763.50;;;28.36;58.02
18527;BME280;9393;42.158;24.748;2023-07-16T04:02:47;99766.91;;;28.53;57.11
18527;BME280;9393;42.158;24.748;2023-07-16T04:06:01;99763.63;;;28.24;58.18
18527;BME280;9393;42.158;24.748;2023-07-16T04:09:05;99764.66;;;28.45;57.56
18527;BME280;9393;42.158;24.748;2023-07-16T04:12:08;99768.44;;;28.71;56.93
18527;BME280;9393;42.158;24.748;2023-07-16T04:15:12;99768.53;;;28.81;55.91
18527;BME280;9393;42.158;24.748;2023-07-16T04:18:16;99771.09;;;28.97;55.97
18527;BME280;9393;42.158;24.748;2023-07-16T04:21:21;99779.50;;;29.06;55.77
18527;BME280;9393;42.158;24.748;2023-07-16T04:24:25;99774.94;;;29.38;54.49
18527;BME280;9393;42.158;24.748;2023-07-16T04:27:29;99776.25;;;29.36;54.41
18527;BME280;9393;42.158;24.748;2023-07-16T04:30:33;99776.69;;;29.23;54.54
18527;BME280;9393;42.158;24.748;2023-07-16T04:33:36;99781.31;;;29.00;54.88
18527;BME280;9393;42.158;24.748;2023-07-16T04:36:42;99777.03;;;28.99;54.91
18527;BME280;9393;42.158;24.748;2023-07-16T04:39:45;99781.41;;;29.10;54.97
18527;BME280;9393;42.158;24.748;2023-07-16T04:42:49;99787.22;;;28.97;55.02
18527;BME280;9393;42.158;24.748;2023-07-16T04:45:53;99784.00;;;29.00;55.08
18527;BME280;9393;42.158;24.748;2023-07-16T04:48:57;99789.75;;;29.41;54.28
18527;BME280;9393;42.158;24.748;2023-07-16T04:52:02;99795.59;;;29.38;54.66
18527;BME280;9393;42.158;24.748;2023-07-16T04:55:07;99799.09;;;29.80;53.24
18527;BME280;9393;42.158;24.748;2023-07-16T04:58:11;99798.94;;;29.50;53.73
18527;BME280;9393;42.158;24.748;2023-07-16T05:01:15;99798.53;;;29.73;53.52
18527;BME280;9393;42.158;24.748;2023-07-16T05:04:19;99804.59;;;29.95;52.56
18527;BME280;9393;42.158;24.748;2023-07-16T05:07:24;99809.34;;;30.40;51.95
18527;BME280;9393;42.158;24.748;2023-07-16T05:10:28;99811.84;;;30.67;50.41
18527;BME280;9393;42.158;24.748;2023-07-16T05:13:32;99810.19;;;30.41;50.05
18527;BME280;9393;42.158;24.748;2023-07-16T05:16:35;99797.97;;;30.13;50.70
18527;BME280;9393;42.158;24.748;2023-07-16T05:19:39;99809.59;;;30.34;49.61
18527;BME280;9393;42.158;24.748;2023-07-16T05:22:45;99816.66;;;30.50;49.86
18527;BME280;9393;42.158;24.748;2023-07-16T05:25:50;99813.88;;;30.35;49.93
18527;BME280;9393;42.158;24.748;2023-07-16T05:28:54;99823.75;;;30.14;50.99
18527;BME280;9393;42.158;24.748;2023-07-16T05:31:58;99818.44;;;29.77;51.77
18527;BME280;9393;42.158;24.748;2023-07-16T05:35:02;99822.91;;;29.98;50.96
18527;BME280;9393;42.158;24.748;2023-07-16T05:38:07;99822.66;;;30.05;51.28
18527;BME280;9393;42.158;24.748;2023-07-16T05:41:11;99822.19;;;29.71;52.03
18527;BME280;9393;42.158;24.748;2023-07-16T05:44:14;99818.94;;;30.16;50.23
18527;BME280;9393;42.158;24.748;2023-07-16T05:47:18;99829.72;;;31.09;48.24
18527;BME280;9393;42.158;24.748;2023-07-16T05:50:22;99825.19;;;30.32;49.85
18527;BME280;9393;42.158;24.748;2023-07-16T05:53:28;99828.44;;;30.39;49.77
18527;BME280;9393;42.158;24.748;2023-07-16T05:56:31;99835.53;;;30.60;49.86
18527;BME280;9393;42.158;24.748;2023-07-16T05:59:35;99839.16;;;31.06;47.66
18527;BME280;9393;42.158;24.748;2023-07-16T06:02:39;99837.78;;;31.39;46.93
18527;BME280;9393;42.158;24.748;2023-07-16T06:05:43;99836.69;;;31.45;46.87
18527;BME280;9393;42.158;24.748;2023-07-16T06:08:49;99836.41;;;31.82;46.24
18527;BME280;9393;42.158;24.748;2023-07-16T06:11:52;99840.94;;;32.01;46.29
18527;BME280;9393;42.158;24.748;2023-07-16T06:14:56;99837.53;;;31.61;46.32
18527;BME280;9393;42.158;24.748;2023-07-16T06:18:00;99829.41;;;31.81;46.38
18527;BME280;9393;42.158;24.748;2023-07-16T06:21:04;99825.34;;;31.83;46.55
18527;BME280;9393;42.158;24.748;2023-07-16T06:24:10;99831.31;;;31.65;47.10
18527;BME280;9393;42.158;24.748;2023-07-16T06:27:18;99821.03;;;31.72;46.81
18527;BME280;9393;42.158;24.748;2023-07-16T06:30:21;99819.38;;;31.91;47.08
18527;BME280;9393;42.158;24.748;2023-07-16T06:33:25;99821.34;;;31.55;47.01
18527;BME280;9393;42.158;24.748;2023-07-16T06:36:30;99817.72;;;32.00;47.30
18527;BME280;9393;42.158;24.748;2023-07-16T06:39:36;99812.38;;;32.60;44.90
18527;BME280;9393;42.158;24.748;2023-07-16T06:42:39;99813.63;;;32.72;43.94
18527;BME280;9393;42.158;24.748;2023-07-16T06:45:43;99816.97;;;32.54;44.11
18527;BME280;9393;42.158;24.748;2023-07-16T06:48:48;99809.97;;;32.53;43.96
18527;BME280;9393;42.158;24.748;2023-07-16T06:51:51;99801.13;;;32.86;43.09
18527;BME280;9393;42.158;24.748;2023-07-16T06:54:57;99792.78;;;32.83;43.82
18527;BME280;9393;42.158;24.748;2023-07-16T06:58:01;99795.34;;;33.37;42.23
18527;BME280;9393;42.158;24.748;2023-07-16T07:01:05;99784.13;;;33.20;42.19
18527;BME280;9393;42.158;24.748;2023-07-16T07:04:09;99792.81;;;33.17;42.12
18527;BME280;9393;42.158;24.748;2023-07-16T07:07:13;99796.66;;;33.06;42.29
18527;BME280;9393;42.158;24.748;2023-07-16T07:10:18;99807.25;;;33.65;41.12
18527;BME280;9393;42.158;24.748;2023-07-16T07:13:23;99802.44;;;33.28;41.09
18527;BME280;9393;42.158;24.748;2023-07-16T07:16:27;99806.56;;;33.20;41.38
18527;BME280;9393;42.158;24.748;2023-07-16T07:19:31;99798.22;;;33.17;41.22
18527;BME280;9393;42.158;24.748;2023-07-16T07:22:35;99804.44;;;33.75;41.19
18527;BME280;9393;42.158;24.748;2023-07-16T07:25:41;99807.03;;;33.56;39.94
18527;BME280;9393;42.158;24.748;2023-07-16T07:28:44;99805.78;;;33.72;39.37
18527;BME280;9393;42.158;24.748;2023-07-16T07:31:48;99798.78;;;33.71;39.57
18527;BME280;9393;42.158;24.748;2023-07-16T07:34:52;99802.22;;;34.00;38.48
18527;BME280;9393;42.158;24.748;2023-07-16T07:37:56;99793.84;;;33.78;39.29
18527;BME280;9393;42.158;24.748;2023-07-16T07:41:01;99795.38;;;33.32;40.19
18527;BME280;9393;42.158;24.748;2023-07-16T07:44:05;99795.91;;;33.63;39.81
18527;BME280;9393;42.158;24.748;2023-07-16T07:47:09;99797.94;;;33.47;39.24
18527;BME280;9393;42.158;24.748;2023-07-16T07:50:13;99790.31;;;33.49;39.47
18527;BME280;9393;42.158;24.748;2023-07-16T07:53:17;99793.19;;;33.86;38.99
18527;BME280;9393;42.158;24.748;2023-07-16T07:56:23;99784.63;;;34.27;38.38
18527;BME280;9393;42.158;24.748;2023-07-16T07:59:27;99796.94;;;33.67;38.43
18527;BME280;9393;42.158;24.748;2023-07-16T08:02:31;99796.22;;;33.27;39.71
18527;BME280;9393;42.158;24.748;2023-07-16T08:05:35;99790.72;;;33.66;38.99
18527;BME280;9393;42.158;24.748;2023-07-16T08:08:38;99786.19;;;33.57;39.16
18527;BME280;9393;42.158;24.748;2023-07-16T08:11:44;99787.47;;;34.12;38.70
18527;BME280;9393;42.158;24.748;2023-07-16T08:14:48;99789.84;;;34.18;38.23
18527;BME280;9393;42.158;24.748;2023-07-16T08:17:51;99795.53;;;34.78;37.24
18527;BME280;9393;42.158;24.748;2023-07-16T08:20:56;99789.75;;;34.84;37.22
18527;BME280;9393;42.158;24.748;2023-07-16T08:24:00;99792.25;;;34.81;37.99
18527;BME280;9393;42.158;24.748;2023-07-16T08:27:06;99792.28;;;34.94;37.78
18527;BME280;9393;42.158;24.748;2023-07-16T08:30:10;99782.88;;;34.55;38.65
18527;BME280;9393;42.158;24.748;2023-07-16T08:33:14;99779.78;;;34.61;38.52
18527;BME280;9393;42.158;24.748;2023-07-16T08:36:18;99788.06;;;34.88;37.80
18527;BME280;9393;42.158;24.748;2023-07-16T08:39:22;99784.59;;;35.02;37.73
18527;BME280;9393;42.158;24.748;2023-07-16T08:42:29;99774.94;;;34.95;37.46
18527;BME280;9393;42.158;24.748;2023-07-16T08:45:35;99773.38;;;34.89;38.04
18527;BME280;9393;42.158;24.748;2023-07-16T08:48:43;99777.78;;;35.50;36.75
18527;BME280;9393;42.158;24.748;2023-07-16T08:51:49;99774.22;;;35.82;36.64
18527;BME280;9393;42.158;24.748;2023-07-16T08:54:53;99769.31;;;35.52;36.65
18527;BME280;9393;42.158;24.748;2023-07-16T08:57:58;99773.59;;;35.85;36.52
18527;BME280;9393;42.158;24.748;2023-07-16T09:01:03;99772.69;;;35.89;36.36
18527;BME280;9393;42.158;24.748;2023-07-16T09:04:08;99766.88;;;36.10;36.66
18527;BME280;9393;42.158;24.748;2023-07-16T09:07:12;99765.44;;;36.48;36.23
18527;BME280;9393;42.158;24.748;2023-07-16T09:10:16;99761.22;;;36.56;35.97
18527;BME280;9393;42.158;24.748;2023-07-16T09:13:22;99765.44;;;36.26;36.99
18527;BME280;9393;42.158;24.748;2023-07-16T09:16:32;99764.03;;;36.15;37.02
18527;BME280;9393;42.158;24.748;2023-07-16T09:19:36;99771.53;;;36.31;36.94
18527;BME280;9393;42.158;24.748;2023-07-16T09:22:40;99760.13;;;36.57;36.28
18527;BME280;9393;42.158;24.748;2023-07-16T09:25:44;99765.97;;;36.50;36.91
18527;BME280;9393;42.158;24.748;2023-07-16T09:28:50;99762.28;;;36.32;37.33
18527;BME280;9393;42.158;24.748;2023-07-16T09:31:54;99758.72;;;36.45;37.22
18527;BME280;9393;42.158;24.748;2023-07-16T09:34:59;99754.75;;;36.29;37.55
18527;BME280;9393;42.158;24.748;2023-07-16T09:38:03;99760.59;;;36.23;37.34
18527;BME280;9393;42.158;24.748;2023-07-16T09:41:07;99745.94;;;36.46;36.96
18527;BME280;9393;42.158;24.748;2023-07-16T09:44:13;99751.97;;;36.07;37.67
18527;BME280;9393;42.158;24.748;2023-07-16T09:47:17;99752.06;;;36.52;37.89
18527;BME280;9393;42.158;24.748;2023-07-16T09:50:23;99733.97;;;36.11;38.01
18527;BME280;9393;42.158;24.748;2023-07-16T09:53:28;99731.72;;;36.63;37.88
18527;BME280;9393;42.158;24.748;2023-07-16T09:56:37;99724.13;;;36.95;37.00
18527;BME280;9393;42.158;24.748;2023-07-16T09:59:44;99726.09;;;36.59;38.24
18527;BME280;9393;42.158;24.748;2023-07-16T10:02:50;99723.38;;;36.81;38.18
18527;BME280;9393;42.158;24.748;2023-07-16T10:06:05;99719.53;;;36.82;37.63
18527;BME280;9393;42.158;24.748;2023-07-16T10:09:09;99717.00;;;36.86;37.45
18527;BME280;9393;42.158;24.748;2023-07-16T10:12:14;99713.78;;;37.37;37.12
18527;BME280;9393;42.158;24.748;2023-07-16T10:15:26;99704.34;;;37.04;37.57
18527;BME280;9393;42.158;24.748;2023-07-16T10:18:31;99704.47;;;36.76;37.73
18527;BME280;9393;42.158;24.748;2023-07-16T10:21:37;99692.41;;;36.60;38.89
18527;BME280;9393;42.158;24.748;2023-07-16T10:24:41;99698.22;;;36.98;37.77
18527;BME280;9393;42.158;24.748;2023-07-16T10:27:47;99692.75;;;37.51;36.60
18527;BME280;9393;42.158;24.748;2023-07-16T10:30:53;99696.59;;;36.97;38.11
18527;BME280;9393;42.158;24.748;2023-07-16T10:34:00;99690.28;;;37.02;37.92
18527;BME280;9393;42.158;24.748;2023-07-16T10:37:07;99685.53;;;36.63;38.54
18527;BME280;9393;42.158;24.748;2023-07-16T10:40:12;99679.81;;;36.95;38.32
18527;BME280;9393;42.158;24.748;2023-07-16T10:43:16;99672.00;;;37.33;37.54
18527;BME280;9393;42.158;24.748;2023-07-16T10:46:21;99672.72;;;37.47;37.28
18527;BME280;9393;42.158;24.748;2023-07-16T10:49:28;99663.28;;;37.53;37.55
18527;BME280;9393;42.158;24.748;2023-07-16T10:52:32;99668.34;;;37.46;37.26
18527;BME280;9393;42.158;24.748;2023-07-16T10:55:36;99661.78;;;37.38;37.37
18527;BME280;9393;42.158;24.748;2023-07-16T10:58:41;99656.44;;;37.64;37.28
18527;BME280;9393;42.158;24.748;2023-07-16T11:01:47;99662.69;;;36.94;38.12
18527;BME280;9393;42.158;24.748;2023-07-16T11:04:52;99651.56;;;37.44;38.03
18527;BME280;9393;42.158;24.748;2023-07-16T11:07:56;99651.06;;;37.42;37.35
18527;BME280;9393;42.158;24.748;2023-07-16T11:11:00;99648.25;;;37.56;37.59
18527;BME280;9393;42.158;24.748;2023-07-16T11:14:04;99638.81;;;37.53;37.21
18527;BME280;9393;42.158;24.748;2023-07-16T11:17:10;99630.97;;;37.69;37.25
18527;BME280;9393;42.158;24.748;2023-07-16T11:20:14;99636.97;;;37.40;37.62
18527;BME280;9393;42.158;24.748;2023-07-16T11:23:18;99634.50;;;37.13;37.94
18527;BME280;9393;42.158;24.748;2023-07-16T11:26:22;99632.81;;;37.42;37.36
18527;BME280;9393;42.158;24.748;2023-07-16T11:29:34;99626.19;;;36.34;39.36
18527;BME280;9393;42.158;24.748;2023-07-16T11:32:42;99627.63;;;37.24;38.11
18527;BME280;9393;42.158;24.748;2023-07-16T11:35:47;99626.75;;;37.37;38.33
18527;BME280;9393;42.158;24.748;2023-07-16T11:38:52;99629.19;;;37.47;38.02
18527;BME280;9393;42.158;24.748;2023-07-16T11:41:56;99626.25;;;37.35;37.50
18527;BME280;9393;42.158;24.748;2023-07-16T11:45:03;99618.16;;;37.69;37.74
18527;BME280;9393;42.158;24.748;2023-07-16T11:48:09;99611.44;;;37.58;37.34
18527;BME280;9393;42.158;24.748;2023-07-16T11:51:12;99606.84;;;37.28;38.18
18527;BME280;9393;42.158;24.748;2023-07-16T11:54:16;99618.16;;;37.69;37.47
18527;BME280;9393;42.158;24.748;2023-07-16T11:57:20;99610.16;;;37.47;37.56
18527;BME280;9393;42.158;24.748;2023-07-16T12:00:24;99613.06;;;37.76;37.08
18527;BME280;9393;42.158;24.748;2023-07-16T12:03:30;99613.69;;;37.65;37.12
18527;BME280;9393;42.158;24.748;2023-07-16T12:06:34;99615.00;;;38.10;36.58
18527;BME280;9393;42.158;24.748;2023-07-16T12:09:37;99599.75;;;37.66;37.20
18527;BME280;9393;42.158;24.748;2023-07-16T12:12:41;99613.69;;;37.90;36.54
18527;BME280;9393;42.158;24.748;2023-07-16T12:15:45;99606.63;;;37.72;37.60
18527;BME280;9393;42.158;24.748;2023-07-16T12:18:50;99603.47;;;38.05;36.62
18527;BME280;9393;42.158;24.748;2023-07-16T12:21:55;99594.16;;;37.71;36.71
18527;BME280;9393;42.158;24.748;2023-07-16T12:25:00;99606.19;;;38.05;36.39
18527;BME280;9393;42.158;24.748;2023-07-16T12:28:05;99597.88;;;38.01;36.45
18527;BME280;9393;42.158;24.748;2023-07-16T12:31:09;99591.09;;;37.90;35.98
18527;BME280;9393;42.158;24.748;2023-07-16T12:34:15;99601.34;;;37.76;36.54
18527;BME280;9393;42.158;24.748;2023-07-16T12:37:19;99591.78;;;38.13;35.88
18527;BME280;9393;42.158;24.748;2023-07-16T12:40:22;99599.28;;;37.73;36.52
18527;BME280;9393;42.158;24.748;2023-07-16T12:43:26;99586.97;;;38.01;35.86
18527;BME280;9393;42.158;24.748;2023-07-16T12:46:30;99589.84;;;38.39;35.74
18527;BME280;9393;42.158;24.748;2023-07-16T12:49:36;99591.03;;;38.67;35.51
18527;BME280;9393;42.158;24.748;2023-07-16T12:52:40;99577.47;;;38.41;35.46
18527;BME280;9393;42.158;24.748;2023-07-16T12:55:44;99578.78;;;38.27;35.56
18527;BME280;9393;42.158;24.748;2023-07-16T12:58:48;99571.72;;;37.83;35.43
18527;BME280;9393;42.158;24.748;2023-07-16T13:01:51;99569.97;;;37.70;35.51
18527;BME280;9393;42.158;24.748;2023-07-16T13:04:57;99563.06;;;38.41;34.95
18527;BME280;9393;42.158;24.748;2023-07-16T13:08:01;99556.53;;;38.16;35.42
18527;BME280;9393;42.158;24.748;2023-07-16T13:11:05;99567.75;;;38.23;35.23
18527;BME280;9393;42.158;24.748;2023-07-16T13:14:09;99561.94;;;38.33;34.94
18527;BME280;9393;42.158;24.748;2023-07-16T13:17:13;99556.84;;;38.23;34.85
18527;BME280;9393;42.158;24.748;2023-07-16T13:20:21;99548.31;;;38.33;34.30
18527;BME280;9393;42.158;24.748;2023-07-16T13:23:26;99551.97;;;38.55;35.19
18527;BME280;9393;42.158;24.748;2023-07-16T13:26:30;99563.09;;;37.89;34.80
18527;BME280;9393;42.158;24.748;2023-07-16T13:29:33;99552.53;;;37.62;35.39
18527;BME280;9393;42.158;24.748;2023-07-16T13:32:37;99547.72;;;37.85;34.96
18527;BME280;9393;42.158;24.748;2023-07-16T13:35:43;99541.97;;;38.04;34.94
18527;BME280;9393;42.158;24.748;2023-07-16T13:38:47;99551.09;;;37.73;34.79
18527;BME280;9393;42.158;24.748;2023-07-16T13:41:51;99537.81;;;37.98;34.80
18527;BME280;9393;42.158;24.748;2023-07-16T13:45:04;99528.97;;;38.18;34.86
18527;BME280;9393;42.158;24.748;2023-07-16T13:48:08;99542.13;;;37.73;35.86
18527;BME280;9393;42.158;24.748;2023-07-16T13:51:14;99525.88;;;38.28;35.37
18527;BME280;9393;42.158;24.748;2023-07-16T13:54:18;99522.31;;;38.53;34.68
18527;BME280;9393;42.158;24.748;2023-07-16T13:57:22;99519.84;;;38.14;34.86
18527;BME280;9393;42.158;24.748;2023-07-16T14:00:26;99522.50;;;38.31;34.87
18527;BME280;9393;42.158;24.748;2023-07-16T14:03:30;99523.06;;;37.73;35.23
18527;BME280;9393;42.158;24.748;2023-07-16T14:06:35;99523.41;;;38.06;34.95
18527;BME280;9393;42.158;24.748;2023-07-16T14:09:39;99520.72;;;38.52;33.74
18527;BME280;9393;42.158;24.748;2023-07-16T14:12:44;99517.38;;;38.38;34.00
18527;BME280;9393;42.158;24.748;2023-07-16T14:15:48;99516.81;;;38.15;34.40
18527;BME280;9393;42.158;24.748;2023-07-16T14:18:52;99513.88;;;38.37;34.09
18527;BME280;9393;42.158;24.748;2023-07-16T14:21:59;99506.31;;;38.34;33.76
18527;BME280;9393;42.158;24.748;2023-07-16T14:25:03;99514.38;;;38.22;33.65
18527;BME280;9393;42.158;24.748;2023-07-16T14:28:07;99516.03;;;38.06;33.73
18527;BME280;9393;42.158;24.748;2023-07-16T14:31:12;99514.69;;;38.21;33.66
18527;BME280;9393;42.158;24.748;2023-07-16T14:34:16;99506.94;;;38.49;33.18
18527;BME280;9393;42.158;24.748;2023-07-16T14:37:21;99502.56;;;38.65;33.29
18527;BME280;9393;42.158;24.748;2023-07-16T14:40:25;99500.44;;;38.70;32.99
18527;BME280;9393;42.158;24.748;2023-07-16T14:43:29;99506.91;;;38.57;32.95
18527;BME280;9393;42.158;24.748;2023-07-16T14:46:33;99501.91;;;38.97;32.57
18527;BME280;9393;42.158;24.748;2023-07-16T14:49:38;99504.50;;;38.56;32.44
18527;BME280;9393;42.158;24.748;2023-07-16T14:52:43;99499.56;;;38.49;32.44
18527;BME280;9393;42.158;24.748;2023-07-16T14:55:47;99491.03;;;38.59;31.79
18527;BME280;9393;42.158;24.748;2023-07-16T14:58:51;99497.34;;;38.42;32.28
18527;BME280;9393;42.158;24.748;2023-07-16T15:01:55;99493.25;;;38.19;32.22
18527;BME280;9393;42.158;24.748;2023-07-16T15:04:59;99494.91;;;38.58;32.13
18527;BME280;9393;42.158;24.748;2023-07-16T15:08:05;99500.06;;;38.42;31.87
18527;BME280;9393;42.158;24.748;2023-07-16T15:11:09;99483.66;;;38.60;31.41
18527;BME280;9393;42.158;24.748;2023-07-16T15:14:13;99482.97;;;38.71;31.70
18527;BME280;9393;42.158;24.748;2023-07-16T15:17:17;99481.72;;;38.60;31.87
18527;BME280;9393;42.158;24.748;2023-07-16T15:20:21;99486.84;;;38.07;32.15
18527;BME280;9393;42.158;24.748;2023-07-16T15:23:28;99485.59;;;38.04;31.98
18527;BME280;9393;42.158;24.748;2023-07-16T15:26:32;99482.56;;;37.97;32.19
18527;BME280;9393;42.158;24.748;2023-07-16T15:29:36;99491.25;;;38.46;31.81
18527;BME280;9393;42.158;24.748;2023-07-16T15:32:40;99472.50;;;38.35;31.46
18527;BME280;9393;42.158;24.748;2023-07-16T15:35:44;99481.97;;;38.38;31.43
18527;BME280;9393;42.158;24.748;2023-07-16T15:38:49;99479.28;;;38.21;31.54
18527;BME280;9393;42.158;24.748;2023-07-16T15:41:53;99479.88;;;38.35;31.55
18527;BME280;9393;42.158;24.748;2023-07-16T15:44:57;99477.28;;;37.83;32.48
18527;BME280;9393;42.158;24.748;2023-07-16T15:48:01;99476.19;;;37.50;32.22
18527;BME280;9393;42.158;24.748;2023-07-16T15:51:05;99475.03;;;37.42;32.24
18527;BME280;9393;42.158;24.748;2023-07-16T15:54:10;99469.81;;;37.55;31.97
18527;BME280;9393;42.158;24.748;2023-07-16T15:57:14;99477.63;;;37.56;32.01
18527;BME280;9393;42.158;24.748;2023-07-16T16:00:18;99473.94;;;37.69;31.75
18527;BME280;9393;42.158;24.748;2023-07-16T16:03:24;99475.22;;;37.37;32.01
18527;BME280;9393;42.158;24.748;2023-07-16T16:06:28;99477.44;;;37.18;31.82
18527;BME280;9393;42.158;24.748;2023-07-16T16:09:34;99477.31;;;37.49;32.07
18527;BME280;9393;42.158;24.748;2023-07-16T16:12:38;99479.22;;;37.40;32.22
18527;BME280;9393;42.158;24.748;2023-07-16T16:15:43;99488.16;;;37.23;32.24
18527;BME280;9393;42.158;24.748;2023-07-16T16:18:47;99476.66;;;36.70;33.07